Time;durP1;ratioP1;P1;durP2;ratioP2;P2;SDS_P1;SDS_P2;PMS_P1;PMS_P2;Temp;Humidity;BMP_temperature;BMP_pressure;BME280_temperature;BME280_humidity;BME280_pressure;Samples;Min_cycle;Max_cycle;Signal;HPM_P1;HPM_P2
2021/01/04 00:00:17;;;;;;;;;;;;;;;3.75;70.54;100102.08;118951;1146;104580;-71
2021/01/04 00:03:02;;;;;;;;;;;;;;;3.78;70.56;100104.50;118875;1147;104506;-72
2021/01/04 00:05:32;;;;;;;;;;;;;;;3.78;70.06;100109.78;118987;1146;104524;-71
2021/01/04 00:08:16;;;;;;;;;;;;;;;3.80;70.43;100107.04;118812;1146;104460;-72
2021/01/04 00:11:10;;;;;;;;;;;;;;;3.77;69.87;100101.97;118825;1147;104479;-72
2021/01/04 00:13:42;;;;;;;;;;;;;;;3.83;70.59;100098.88;119029;1146;104554;-71
2021/01/04 00:16:14;;;;;;;;;;;;;;;3.85;70.36;100105.75;118942;1146;104479;-70
2021/01/04 00:18:59;;;;;;;;;;;;;;;3.87;70.53;100105.64;118759;1147;104551;-71
2021/01/04 00:21:31;;;;;;;;;;;;;;;3.90;70.49;100103.59;118948;1146;104545;-72
2021/01/04 00:24:03;;;;;;;;;;;;;;;3.93;69.54;100102.54;118959;1147;104455;-72
2021/01/04 00:26:35;;;;;;;;;;;;;;;3.91;69.69;100100.00;118888;1146;104607;-71
2021/01/04 00:29:03;;;;;;;;;;;;;;;3.89;70.91;100107.20;118836;1146;104476;-71
2021/01/04 00:31:33;;;;;;;;;;;;;;;3.86;70.51;100104.77;118877;1146;104560;-71
2021/01/04 00:34:04;;;;;;;;;;;;;;;3.85;70.08;100100.47;118699;1146;104478;-71
2021/01/04 00:36:33;;;;;;;;;;;;;;;3.80;70.38;100097.31;118800;1147;104482;-73
2021/01/04 00:39:07;;;;;;;;;;;;;;;3.76;70.36;100101.14;118914;1146;104640;-72
2021/01/04 00:41:38;;;;;;;;;;;;;;;3.72;70.68;100091.77;118942;1147;104610;-71
2021/01/04 00:44:08;;;;;;;;;;;;;;;3.75;69.74;100099.44;118902;1146;104563;-72
2021/01/04 00:46:37;;;;;;;;;;;;;;;3.78;69.88;100099.23;118851;1147;104470;-72
2021/01/04 00:49:09;;;;;;;;;;;;;;;3.81;70.71;100106.94;118914;1146;104459;-72
2021/01/04 00:51:48;;;;;;;;;;;;;;;3.86;69.94;100102.13;118977;1147;104460;-73
2021/01/04 00:54:32;;;;;;;;;;;;;;;3.90;70.44;100113.31;118913;1146;104500;-74
2021/01/04 00:57:09;;;;;;;;;;;;;;;3.91;69.79;100110.56;118902;1147;104454;-72
2021/01/04 00:59:41;;;;;;;;;;;;;;;3.92;70.14;100106.95;118754;1147;104639;-72
2021/01/04 01:02:18;;;;;;;;;;;;;;;3.96;70.49;100104.93;118791;1147;104591;-72
2021/01/04 01:04:52;;;;;;;;;;;;;;;4.01;69.91;100104.61;118638;1147;104561;-73
2021/01/04 01:07:27;;;;;;;;;;;;;;;4.02;70.57;100106.27;118573;1146;104548;-73
2021/01/04 01:09:55;;;;;;;;;;;;;;;4.00;70.25;100108.19;118547;1146;104556;-72
2021/01/04 01:12:42;;;;;;;;;;;;;;;4.03;69.81;100107.97;118590;1146;104503;-72
2021/01/04 01:15:16;;;;;;;;;;;;;;;4.04;69.88;100110.50;118773;1146;104472;-72
2021/01/04 01:17:52;;;;;;;;;;;;;;;4.03;69.88;100105.33;118966;1147;105000;-73
2021/01/04 01:20:20;;;;;;;;;;;;;;;4.05;70.50;100106.05;118965;1147;104514;-72
2021/01/04 01:22:47;;;;;;;;;;;;;;;4.09;69.94;100110.14;118952;1147;104475;-73
2021/01/04 01:25:16;;;;;;;;;;;;;;;4.10;69.90;100103.92;118967;1147;104472;-72
2021/01/04 01:28:03;;;;;;;;;;;;;;;4.12;70.09;100097.56;118994;1148;104614;-72
2021/01/04 01:30:42;;;;;;;;;;;;;;;4.13;70.65;100101.03;118728;1147;104487;-72
2021/01/04 01:33:27;;;;;;;;;;;;;;;4.13;70.20;100106.31;118926;1146;104497;-71
2021/01/04 01:36:04;;;;;;;;;;;;;;;4.10;70.61;100102.11;118859;1146;104545;-72
2021/01/04 01:38:53;;;;;;;;;;;;;;;4.12;70.27;100102.84;119021;1146;104524;-72
2021/01/04 01:41:45;;;;;;;;;;;;;;;4.13;70.84;100108.95;118990;1147;104519;-72
2021/01/04 01:44:16;;;;;;;;;;;;;;;4.15;69.86;100098.28;118978;1147;104519;-72
2021/01/04 01:46:45;;;;;;;;;;;;;;;4.22;70.13;100100.34;118924;1147;104544;-72
2021/01/04 01:49:20;;;;;;;;;;;;;;;4.24;70.20;100101.06;118999;1147;104544;-72
2021/01/04 01:52:02;;;;;;;;;;;;;;;4.26;70.18;100088.59;119003;1147;104479;-71
2021/01/04 01:54:37;;;;;;;;;;;;;;;4.26;70.10;100093.03;119006;1147;104541;-71
2021/01/04 01:57:18;;;;;;;;;;;;;;;4.20;70.06;100094.34;118580;1147;104473;-72
2021/01/04 02:00:02;;;;;;;;;;;;;;;4.22;70.65;100095.06;118838;1146;104506;-71
2021/01/04 02:02:36;;;;;;;;;;;;;;;4.20;70.25;100089.05;119000;1146;104563;-72
2021/01/04 02:05:10;;;;;;;;;;;;;;;4.21;69.75;100093.36;118958;1147;104477;-72
2021/01/04 02:07:38;;;;;;;;;;;;;;;4.19;71.00;100087.36;118950;1147;104560;-72
2021/01/04 02:10:08;;;;;;;;;;;;;;;4.21;70.57;100090.72;118936;1146;104485;-72
2021/01/04 02:12:40;;;;;;;;;;;;;;;4.27;70.22;100094.70;119047;1146;104479;-72
2021/01/04 02:15:11;;;;;;;;;;;;;;;4.28;69.91;100094.59;118961;1147;104570;-71
2021/01/04 02:17:56;;;;;;;;;;;;;;;4.31;70.53;100090.86;118980;1148;104467;-72
2021/01/04 02:20:50;;;;;;;;;;;;;;;4.35;69.90;100087.05;119002;1147;104546;-71
2021/01/04 02:23:35;;;;;;;;;;;;;;;4.36;70.05;100087.89;118963;1147;104551;-72
2021/01/04 02:26:07;;;;;;;;;;;;;;;4.37;70.03;100085.14;118955;1147;104968;-72
2021/01/04 02:28:35;;;;;;;;;;;;;;;4.39;69.87;100088.50;118991;1147;104450;-72
2021/01/04 02:31:02;;;;;;;;;;;;;;;4.41;70.24;100086.58;118901;1147;104569;-71
2021/01/04 02:33:30;;;;;;;;;;;;;;;4.38;70.09;100076.23;118947;1146;104812;-72
2021/01/04 02:36:01;;;;;;;;;;;;;;;4.36;70.13;100077.33;118916;1146;104599;-71
2021/01/04 02:38:32;;;;;;;;;;;;;;;4.38;70.31;100083.33;118923;1147;104559;-72
2021/01/04 02:40:59;;;;;;;;;;;;;;;4.41;69.95;100091.03;118861;1147;104480;-71
2021/01/04 02:43:26;;;;;;;;;;;;;;;4.45;69.92;100092.48;119000;1147;104550;-71
2021/01/04 02:45:55;;;;;;;;;;;;;;;4.42;70.14;100087.41;118969;1147;104518;-71
2021/01/04 02:48:39;;;;;;;;;;;;;;;4.41;70.20;100086.58;119015;1147;104601;-72
2021/01/04 02:51:09;;;;;;;;;;;;;;;4.49;70.25;100093.92;118996;1147;104607;-71
2021/01/04 02:53:54;;;;;;;;;;;;;;;4.49;70.05;100093.92;118972;1147;104506;-77
2021/01/04 02:56:34;;;;;;;;;;;;;;;4.48;70.43;100097.50;118955;1147;104605;-72
2021/01/04 02:59:07;;;;;;;;;;;;;;;4.46;70.11;100083.58;118996;1146;104639;-71
2021/01/04 03:01:38;;;;;;;;;;;;;;;4.45;70.21;100081.91;119025;1146;104503;-72
2021/01/04 03:04:07;;;;;;;;;;;;;;;4.46;70.15;100078.29;118968;1145;104930;-71
2021/01/04 03:06:38;;;;;;;;;;;;;;;4.48;69.34;100079.01;118954;1146;104544;-71
2021/01/04 03:09:07;;;;;;;;;;;;;;;4.48;70.23;100076.37;118654;1147;104496;-72
2021/01/04 03:11:34;;;;;;;;;;;;;;;4.46;70.17;100078.29;118823;1146;104930;-72
2021/01/04 03:14:04;;;;;;;;;;;;;;;4.46;70.23;100078.29;119014;1146;104546;-72
2021/01/04 03:16:36;;;;;;;;;;;;;;;4.47;69.83;100077.34;118942;1146;104471;-72
2021/01/04 03:19:05;;;;;;;;;;;;;;;4.50;70.29;100079.73;118668;1146;104459;-72
2021/01/04 03:21:33;;;;;;;;;;;;;;;4.54;69.98;100073.25;118994;1147;104547;-73
2021/01/04 03:24:00;;;;;;;;;;;;;;;4.49;70.16;100072.78;118988;1148;104496;-73
2021/01/04 03:26:29;;;;;;;;;;;;;;;4.48;70.30;100081.65;119006;1146;104550;-72
2021/01/04 03:28:56;;;;;;;;;;;;;;;4.51;70.00;100086.71;119009;1146;104547;-72
2021/01/04 03:31:23;;;;;;;;;;;;;;;4.53;70.08;100080.34;118930;1146;104517;-72
2021/01/04 03:33:50;;;;;;;;;;;;;;;4.56;70.18;100081.92;118485;1146;104550;-73
2021/01/04 03:36:17;;;;;;;;;;;;;;;4.57;70.28;100080.11;118869;1147;104472;-71
2021/01/04 03:38:44;;;;;;;;;;;;;;;4.56;70.24;100079.28;118779;1146;104599;-72
2021/01/04 03:41:13;;;;;;;;;;;;;;;4.50;70.19;100077.95;118997;1147;104572;-73
2021/01/04 03:43:42;;;;;;;;;;;;;;;4.48;70.37;100079.88;118926;1146;104605;-72
2021/01/04 03:46:09;;;;;;;;;;;;;;;4.47;70.25;100085.27;118873;1146;104473;-72
2021/01/04 03:48:37;;;;;;;;;;;;;;;4.47;70.15;100083.46;119003;1146;104481;-72
2021/01/04 03:51:04;;;;;;;;;;;;;;;4.46;70.26;100089.69;118969;1147;104543;-71
2021/01/04 03:53:31;;;;;;;;;;;;;;;4.45;70.46;100087.19;119012;1148;104637;-70
2021/01/04 03:55:58;;;;;;;;;;;;;;;4.41;70.30;100080.47;118847;1147;104524;-70
2021/01/04 03:58:25;;;;;;;;;;;;;;;4.42;70.32;100092.70;118844;1147;104547;-73
2021/01/04 04:00:53;;;;;;;;;;;;;;;4.40;70.69;100094.62;118888;1147;104518;-71
2021/01/04 04:03:20;;;;;;;;;;;;;;;4.39;70.44;100093.78;118983;1146;104549;-71
2021/01/04 04:05:47;;;;;;;;;;;;;;;4.40;70.75;100092.81;119085;1147;104511;-71
2021/01/04 04:08:14;;;;;;;;;;;;;;;4.39;70.47;100096.42;118714;1146;104579;-72
2021/01/04 04:10:41;;;;;;;;;;;;;;;4.41;70.55;100096.31;118265;1146;104572;-71
2021/01/04 04:13:08;;;;;;;;;;;;;;;4.39;70.38;100098.20;118604;1147;104550;-71
2021/01/04 04:15:35;;;;;;;;;;;;;;;4.37;70.62;100097.48;118759;1147;104518;-71
2021/01/04 04:18:02;;;;;;;;;;;;;;;4.33;70.53;100095.09;118544;1147;104549;-71
2021/01/04 04:20:29;;;;;;;;;;;;;;;4.33;71.00;100103.02;118579;1147;104448;-71
2021/01/04 04:22:56;;;;;;;;;;;;;;;4.37;70.90;100094.84;118688;1148;104723;-71
2021/01/04 04:25:24;;;;;;;;;;;;;;;4.39;70.57;100098.20;118998;1147;104544;-71
2021/01/04 04:27:51;;;;;;;;;;;;;;;4.36;70.61;100095.81;118994;1146;104469;-71
2021/01/04 04:30:21;;;;;;;;;;;;;;;4.37;70.79;100116.84;118967;1147;104471;-71
2021/01/04 04:32:48;;;;;;;;;;;;;;;4.37;70.68;100102.77;119008;1146;104499;-71
2021/01/04 04:35:15;;;;;;;;;;;;;;;4.33;71.02;100100.38;118972;1148;104474;-72
2021/01/04 04:37:43;;;;;;;;;;;;;;;4.33;70.69;100100.38;118982;1147;104492;-71
2021/01/04 04:40:14;;;;;;;;;;;;;;;4.35;70.40;100102.91;118956;1147;104502;-72
2021/01/04 04:42:41;;;;;;;;;;;;;;;4.40;70.81;100097.26;118948;1147;104479;-72
2021/01/04 04:45:12;;;;;;;;;;;;;;;4.37;70.31;100095.70;118903;1146;104591;-72
2021/01/04 04:47:51;;;;;;;;;;;;;;;4.38;70.45;100099.18;119003;1147;104535;-73
2021/01/04 04:50:29;;;;;;;;;;;;;;;4.39;70.64;100103.48;118907;1146;104566;-71
2021/01/04 04:53:09;;;;;;;;;;;;;;;4.47;70.85;100098.48;118844;1147;104503;-71
2021/01/04 04:55:40;;;;;;;;;;;;;;;4.49;70.77;100104.48;118798;1146;104484;-72
2021/01/04 04:58:18;;;;;;;;;;;;;;;4.49;70.55;100105.32;118937;1147;104537;-71
2021/01/04 05:00:54;;;;;;;;;;;;;;;4.48;70.83;100106.30;118996;1147;104950;-72
2021/01/04 05:03:32;;;;;;;;;;;;;;;4.43;70.81;100099.68;118987;1147;104513;-72
2021/01/04 05:06:07;;;;;;;;;;;;;;;4.43;70.11;100099.68;118868;1147;104551;-72
2021/01/04 05:08:44;;;;;;;;;;;;;;;4.38;70.52;100104.46;118875;1147;104553;-72
2021/01/04 05:11:12;;;;;;;;;;;;;;;4.38;70.71;100096.53;118992;1148;104468;-72
2021/01/04 05:13:41;;;;;;;;;;;;;;;4.39;70.83;100099.06;118940;1146;104581;-73
2021/01/04 05:16:10;;;;;;;;;;;;;;;4.41;71.24;100106.88;118961;1147;104557;-72
2021/01/04 05:18:54;;;;;;;;;;;;;;;4.41;71.02;100104.23;119008;1147;104559;-71
2021/01/04 05:21:36;;;;;;;;;;;;;;;4.38;71.12;100120.31;118995;1147;104517;-72
2021/01/04 05:24:15;;;;;;;;;;;;;;;4.39;71.30;100124.62;118972;1147;104546;-72
2021/01/04 05:26:59;;;;;;;;;;;;;;;4.45;70.61;100129.46;118966;1146;104476;-72
2021/01/04 05:29:42;;;;;;;;;;;;;;;4.45;71.25;100134.75;119013;1147;104527;-73
2021/01/04 05:32:20;;;;;;;;;;;;;;;4.47;71.05;100127.55;118993;1147;104533;-72
2021/01/04 05:34:50;;;;;;;;;;;;;;;4.53;71.04;100130.55;118981;1146;104457;-72
2021/01/04 05:37:38;;;;;;;;;;;;;;;4.62;71.24;100134.30;118957;1147;104550;-72
2021/01/04 05:40:12;;;;;;;;;;;;;;;4.65;70.66;100134.04;118776;1147;104556;-72
2021/01/04 05:42:54;;;;;;;;;;;;;;;4.68;70.84;100125.05;118795;1146;104478;-72
2021/01/04 05:45:25;;;;;;;;;;;;;;;4.71;70.92;100133.59;118939;1147;104474;-71
2021/01/04 05:47:59;;;;;;;;;;;;;;;4.72;70.93;100132.62;118990;1147;104451;-72
2021/01/04 05:50:31;;;;;;;;;;;;;;;4.77;70.77;100139.34;119052;1147;104537;-72
2021/01/04 05:52:58;;;;;;;;;;;;;;;4.78;70.88;100133.11;118904;1147;104525;-72
2021/01/04 05:55:25;;;;;;;;;;;;;;;4.81;70.88;100125.80;118613;1147;104556;-74
2021/01/04 05:57:53;;;;;;;;;;;;;;;4.85;70.49;100136.94;118777;1146;104503;-72
2021/01/04 06:00:31;;;;;;;;;;;;;;;4.88;70.57;100128.78;118918;1146;104477;-72
2021/01/04 06:03:05;;;;;;;;;;;;;;;4.86;70.87;100134.19;118823;1146;104545;-72
2021/01/04 06:05:32;;;;;;;;;;;;;;;4.82;70.67;100143.31;118940;1146;104559;-72
2021/01/04 06:08:00;;;;;;;;;;;;;;;4.80;70.94;100136.48;118498;1147;104538;-71
2021/01/04 06:10:30;;;;;;;;;;;;;;;4.81;71.02;100136.37;118662;1147;104453;-72
2021/01/04 06:12:58;;;;;;;;;;;;;;;4.85;70.93;100139.58;118905;1147;104492;-72
2021/01/04 06:15:27;;;;;;;;;;;;;;;4.86;70.64;100141.28;118463;1146;104476;-72
2021/01/04 06:18:01;;;;;;;;;;;;;;;4.83;70.77;100139.73;118541;1146;104541;-72
2021/01/04 06:20:34;;;;;;;;;;;;;;;4.80;70.80;100139.13;118831;1147;104549;-71
2021/01/04 06:23:11;;;;;;;;;;;;;;;4.79;71.14;100145.35;118580;1147;104546;-72
2021/01/04 06:25:38;;;;;;;;;;;;;;;4.77;70.78;100144.63;118460;1147;104534;-71
2021/01/04 06:28:05;;;;;;;;;;;;;;;4.75;70.83;100141.27;118550;1146;104467;-71
2021/01/04 06:30:35;;;;;;;;;;;;;;;4.71;70.92;100146.81;118621;1147;104632;-71
2021/01/04 06:33:07;;;;;;;;;;;;;;;4.76;70.93;100142.97;118579;1147;104474;-71
2021/01/04 06:35:34;;;;;;;;;;;;;;;4.78;71.01;100141.05;118644;1147;104544;-72
2021/01/04 06:38:06;;;;;;;;;;;;;;;4.76;70.59;100142.97;118890;1147;105515;-72
2021/01/04 06:40:35;;;;;;;;;;;;;;;4.72;70.60;100152.93;118716;1146;104940;-72
2021/01/04 06:43:16;;;;;;;;;;;;;;;4.69;70.81;100153.16;118746;1146;104634;-72
2021/01/04 06:45:49;;;;;;;;;;;;;;;4.68;71.04;100146.20;118753;1147;104466;-72
2021/01/04 06:48:18;;;;;;;;;;;;;;;4.71;71.00;100141.52;118432;1147;105001;-70
2021/01/04 06:50:52;;;;;;;;;;;;;;;4.69;70.75;100143.41;118395;1146;104462;-71
2021/01/04 06:53:42;;;;;;;;;;;;;;;4.66;71.40;100146.31;118721;1147;104492;-72
2021/01/04 06:56:36;;;;;;;;;;;;;;;4.67;71.14;100141.86;118466;1148;104605;-71
2021/01/04 06:59:20;;;;;;;;;;;;;;;4.70;71.01;100144.28;118352;1147;104470;-73
2021/01/04 07:02:04;;;;;;;;;;;;;;;4.69;71.02;100156.63;118572;1147;104624;-71
2021/01/04 07:04:41;;;;;;;;;;;;;;;4.70;71.22;100145.11;118514;1147;104629;-73
2021/01/04 07:07:19;;;;;;;;;;;;;;;4.68;70.67;100141.75;118596;1148;105209;-71
2021/01/04 07:09:59;;;;;;;;;;;;;;;4.68;71.14;100152.32;118733;1147;104457;-71
2021/01/04 07:12:32;;;;;;;;;;;;;;;4.66;71.26;100148.95;118711;1147;104473;-71
2021/01/04 07:15:09;;;;;;;;;;;;;;;4.70;71.53;100144.28;118674;1147;104491;-71
2021/01/04 07:17:53;;;;;;;;;;;;;;;4.67;70.93;100144.50;118668;1147;104447;-72
2021/01/04 07:20:26;;;;;;;;;;;;;;;4.70;71.40;100146.92;118813;1148;104552;-72
2021/01/04 07:23:08;;;;;;;;;;;;;;;4.70;71.29;100144.28;118990;1147;104469;-71
2021/01/04 07:25:41;;;;;;;;;;;;;;;4.69;71.29;100143.41;118741;1147;105333;-71
2021/01/04 07:28:13;;;;;;;;;;;;;;;4.70;71.18;100139.83;118570;1146;105283;-71
2021/01/04 07:30:44;;;;;;;;;;;;;;;4.69;71.71;100137.30;118898;1147;104746;-71
2021/01/04 07:33:18;;;;;;;;;;;;;;;4.75;71.41;100131.53;118826;1146;104766;-71
2021/01/04 07:35:52;;;;;;;;;;;;;;;4.77;71.30;100139.34;118453;1146;104476;-71
2021/01/04 07:38:25;;;;;;;;;;;;;;;4.81;71.49;100140.78;118512;1147;105360;-71
2021/01/04 07:41:00;;;;;;;;;;;;;;;4.78;71.15;100136.59;118811;1147;105892;-71
2021/01/04 07:43:40;;;;;;;;;;;;;;;4.82;71.32;100137.20;118484;1146;105859;-71
2021/01/04 07:46:21;;;;;;;;;;;;;;;4.90;71.60;100134.79;118835;1148;105433;-71
2021/01/04 07:49:09;;;;;;;;;;;;;;;4.94;71.66;100128.30;118520;1147;104943;-71
2021/01/04 07:51:50;;;;;;;;;;;;;;;5.03;71.23;100124.94;118614;1146;104470;-71
2021/01/04 07:54:49;;;;;;;;;;;;;;;5.04;70.96;100126.64;118710;1148;105901;-71
2021/01/04 07:57:39;;;;;;;;;;;;;;;5.01;71.17;100137.44;118709;1147;104527;-71
2021/01/04 08:00:20;;;;;;;;;;;;;;;4.97;71.08;100145.75;119000;1147;104519;-72
2021/01/04 08:03:05;;;;;;;;;;;;;;;4.96;70.99;100149.34;118947;1147;104588;-71
2021/01/04 08:05:43;;;;;;;;;;;;;;;4.93;71.36;100158.36;118896;1146;104498;-71
2021/01/04 08:08:27;;;;;;;;;;;;;;;4.95;71.44;100153.80;118485;1147;104493;-72
2021/01/04 08:11:33;;;;;;;;;;;;;;;4.98;71.56;100161.47;118850;1147;104669;-71
2021/01/04 08:14:34;;;;;;;;;;;;;;;5.00;71.18;100159.55;118701;1147;104606;-72
2021/01/04 08:17:05;;;;;;;;;;;;;;;5.07;71.11;100163.41;118946;1147;104550;-71
2021/01/04 08:19:36;;;;;;;;;;;;;;;5.12;71.41;100170.99;118477;1146;104479;-71
2021/01/04 08:22:08;;;;;;;;;;;;;;;5.13;71.21;100177.12;118858;1147;104952;-72
2021/01/04 08:24:38;;;;;;;;;;;;;;;5.13;71.63;100182.41;118868;1145;104541;-71
2021/01/04 08:27:12;;;;;;;;;;;;;;;5.09;71.58;100181.80;118993;1147;104468;-71
2021/01/04 08:29:46;;;;;;;;;;;;;;;5.06;71.51;100177.60;118986;1147;104556;-71
2021/01/04 08:32:17;;;;;;;;;;;;;;;5.12;71.33;100186.86;118980;1148;104713;-71
2021/01/04 08:34:45;;;;;;;;;;;;;;;5.17;71.62;100179.39;118817;1148;104451;-71
2021/01/04 08:37:14;;;;;;;;;;;;;;;5.30;71.38;100192.50;118785;1147;104476;-71
2021/01/04 08:39:44;;;;;;;;;;;;;;;5.36;71.07;100189.37;118942;1147;104886;-71
2021/01/04 08:42:31;;;;;;;;;;;;;;;5.38;70.86;100195.38;118964;1146;104523;-71
2021/01/04 08:45:00;;;;;;;;;;;;;;;5.36;71.02;100201.77;118898;1147;105020;-71
2021/01/04 08:47:30;;;;;;;;;;;;;;;5.39;71.04;100207.66;119007;1148;104661;-71
2021/01/04 08:50:05;;;;;;;;;;;;;;;5.39;71.75;100212.09;118923;1147;104578;-71
2021/01/04 08:52:38;;;;;;;;;;;;;;;5.43;71.11;100202.98;118660;1147;104546;-71
2021/01/04 08:55:07;;;;;;;;;;;;;;;5.50;71.02;100217.38;118665;1146;104503;-71
2021/01/04 08:57:40;;;;;;;;;;;;;;;5.55;71.66;100219.69;119020;1146;105052;-71
2021/01/04 09:00:16;;;;;;;;;;;;;;;5.51;71.39;100214.62;118908;1147;104537;-71
2021/01/04 09:02:44;;;;;;;;;;;;;;;5.49;71.52;100205.97;118626;1147;104551;-71
2021/01/04 09:05:12;;;;;;;;;;;;;;;5.50;71.33;100212.95;118884;1147;104467;-72
2021/01/04 09:07:49;;;;;;;;;;;;;;;5.50;71.41;100215.59;119031;1146;104497;-71
2021/01/04 09:10:18;;;;;;;;;;;;;;;5.50;71.16;100215.59;119024;1147;104556;-71
2021/01/04 09:12:47;;;;;;;;;;;;;;;5.55;71.25;100209.09;118982;1146;104471;-71
2021/01/04 09:15:28;;;;;;;;;;;;;;;5.59;71.87;100215.83;119000;1147;104585;-71
2021/01/04 09:18:09;;;;;;;;;;;;;;;5.61;71.15;100227.13;119031;1147;105103;-72
2021/01/04 09:20:47;;;;;;;;;;;;;;;5.56;71.22;100224.00;118982;1147;104560;-71
2021/01/04 09:23:25;;;;;;;;;;;;;;;5.58;71.92;100219.42;119006;1146;104460;-71
2021/01/04 09:25:54;;;;;;;;;;;;;;;5.57;71.81;100217.75;118782;1146;104549;-71
2021/01/04 09:28:22;;;;;;;;;;;;;;;5.61;71.48;100224.48;119026;1147;104652;-71
2021/01/04 09:30:51;;;;;;;;;;;;;;;5.64;71.58;100209.20;118912;1147;104487;-71
2021/01/04 09:33:19;;;;;;;;;;;;;;;5.63;71.00;100222.55;118669;1147;104532;-71
2021/01/04 09:35:46;;;;;;;;;;;;;;;5.65;71.45;100221.45;118742;1146;104477;-71
2021/01/04 09:38:18;;;;;;;;;;;;;;;5.69;71.43;100222.06;118602;1147;104457;-71
2021/01/04 09:40:48;;;;;;;;;;;;;;;5.77;71.03;100226.74;118377;1147;104500;-71
2021/01/04 09:43:15;;;;;;;;;;;;;;;5.80;71.29;100219.39;118772;1146;104676;-71
2021/01/04 09:45:42;;;;;;;;;;;;;;;5.88;71.15;100216.97;118976;1147;104574;-73
2021/01/04 09:48:16;;;;;;;;;;;;;;;5.99;71.20;100215.31;119023;1147;104583;-71
2021/01/04 09:50:51;;;;;;;;;;;;;;;6.03;70.41;100211.44;118719;1146;104461;-71
2021/01/04 09:53:20;;;;;;;;;;;;;;;5.98;71.38;100208.31;118722;1146;104819;-71
2021/01/04 09:55:48;;;;;;;;;;;;;;;5.93;70.56;100218.39;118833;1146;104471;-71
2021/01/04 09:58:18;;;;;;;;;;;;;;;5.92;71.01;100224.67;118858;1146;104664;-71
2021/01/04 10:00:46;;;;;;;;;;;;;;;5.94;70.60;100217.45;118947;1146;104525;-71
2021/01/04 10:03:14;;;;;;;;;;;;;;;5.92;71.25;100212.27;118986;1147;104549;-71
2021/01/04 10:05:42;;;;;;;;;;;;;;;5.89;71.37;100218.66;118901;1147;104550;-71
2021/01/04 10:08:13;;;;;;;;;;;;;;;5.95;71.90;100216.46;118819;1146;104476;-71
2021/01/04 10:10:41;;;;;;;;;;;;;;;6.00;70.51;100209.03;119033;1146;104479;-70
2021/01/04 10:13:11;;;;;;;;;;;;;;;6.04;71.46;100210.45;118650;1147;104584;-71
2021/01/04 10:15:38;;;;;;;;;;;;;;;6.09;70.60;100216.23;118675;1147;104546;-71
2021/01/04 10:18:14;;;;;;;;;;;;;;;6.11;71.20;100206.35;118977;1147;104831;-71
2021/01/04 10:20:45;;;;;;;;;;;;;;;6.10;70.82;100207.30;118788;1146;104450;-71
2021/01/04 10:23:17;;;;;;;;;;;;;;;6.13;70.69;100209.71;118961;1147;104477;-71
2021/01/04 10:25:49;;;;;;;;;;;;;;;6.15;70.60;100207.78;118976;1147;104615;-72
2021/01/04 10:28:16;;;;;;;;;;;;;;;6.20;70.47;100202.95;119072;1147;104919;-72
2021/01/04 10:30:43;;;;;;;;;;;;;;;6.24;71.53;100204.38;119056;1147;104450;-72
2021/01/04 10:33:22;;;;;;;;;;;;;;;6.24;70.46;100207.03;118664;1146;104505;-71
2021/01/04 10:35:58;;;;;;;;;;;;;;;6.26;70.55;100212.20;118950;1147;104553;-72
2021/01/04 10:38:25;;;;;;;;;;;;;;;6.27;71.44;100204.14;118842;1148;104889;-71
2021/01/04 10:40:52;;;;;;;;;;;;;;;6.25;70.37;100200.74;118904;1147;104466;-71
2021/01/04 10:43:20;;;;;;;;;;;;;;;6.21;71.32;100198.48;118967;1147;104563;-72
2021/01/04 10:45:47;;;;;;;;;;;;;;;6.19;70.33;100197.77;118941;1147;104457;-72
2021/01/04 10:48:16;;;;;;;;;;;;;;;6.15;70.64;100194.53;118835;1146;104538;-71
2021/01/04 10:50:45;;;;;;;;;;;;;;;6.10;71.08;100183.45;119005;1146;104535;-71
2021/01/04 10:53:25;;;;;;;;;;;;;;;6.10;71.04;100178.16;118814;1147;104580;-71
2021/01/04 10:56:01;;;;;;;;;;;;;;;6.13;70.73;100180.57;118621;1146;104573;-71
2021/01/04 10:58:29;;;;;;;;;;;;;;;6.14;71.12;100184.05;118814;1147;104542;-72
2021/01/04 11:01:00;;;;;;;;;;;;;;;6.15;70.17;100175.98;118907;1147;104463;-71
2021/01/04 11:03:27;;;;;;;;;;;;;;;6.13;71.13;100163.84;118784;1147;104556;-71
2021/01/04 11:05:54;;;;;;;;;;;;;;;6.14;71.47;100169.02;118483;1146;104461;-71
2021/01/04 11:08:32;;;;;;;;;;;;;;;6.15;71.31;100170.69;118576;1146;104548;-71
2021/01/04 11:11:04;;;;;;;;;;;;;;;6.16;70.36;100176.82;118961;1147;104489;-71
2021/01/04 11:13:33;;;;;;;;;;;;;;;6.16;71.60;100175.03;118686;1146;104473;-71
2021/01/04 11:16:20;;;;;;;;;;;;;;;6.20;70.83;100167.67;118856;1147;104469;-71
2021/01/04 11:18:52;;;;;;;;;;;;;;;6.19;71.38;100172.11;118483;1147;104572;-71
2021/01/04 11:21:20;;;;;;;;;;;;;;;6.22;71.24;100177.17;118431;1147;104594;-72
2021/01/04 11:23:47;;;;;;;;;;;;;;;6.21;70.73;100164.88;118671;1147;104447;-71
2021/01/04 11:26:14;;;;;;;;;;;;;;;6.21;71.00;100170.17;118971;1147;104524;-71
2021/01/04 11:28:41;;;;;;;;;;;;;;;6.23;70.13;100156.80;119017;1147;104464;-71
2021/01/04 11:31:08;;;;;;;;;;;;;;;6.22;70.57;100158.63;118992;1147;104556;-71
2021/01/04 11:33:35;;;;;;;;;;;;;;;6.14;70.38;100153.13;118780;1147;104512;-72
2021/01/04 11:36:02;;;;;;;;;;;;;;;6.12;70.73;100154.20;118891;1148;104543;-71
2021/01/04 11:38:29;;;;;;;;;;;;;;;6.09;71.34;100166.73;119062;1147;104474;-71
2021/01/04 11:40:57;;;;;;;;;;;;;;;6.08;70.95;100164.20;119002;1148;104545;-72
2021/01/04 11:43:24;;;;;;;;;;;;;;;6.04;70.30;100163.64;118898;1147;104548;-72
2021/01/04 11:45:51;;;;;;;;;;;;;;;6.04;70.94;100154.83;118981;1147;104542;-71
2021/01/04 11:48:18;;;;;;;;;;;;;;;6.07;71.15;100159.89;119019;1148;104450;-71
2021/01/04 11:50:45;;;;;;;;;;;;;;;6.12;71.60;100159.50;118731;1147;104984;-71
2021/01/04 11:53:12;;;;;;;;;;;;;;;6.09;71.01;100157.95;118873;1146;104464;-71
2021/01/04 11:55:39;;;;;;;;;;;;;;;6.03;71.07;100161.95;119008;1146;104601;-71
2021/01/04 11:58:06;;;;;;;;;;;;;;;6.02;71.58;100154.95;119001;1147;104448;-71
2021/01/04 12:00:33;;;;;;;;;;;;;;;6.06;70.43;100147.59;119003;1146;104573;-71
2021/01/04 12:03:00;;;;;;;;;;;;;;;6.01;70.41;100145.34;118807;1146;104498;-72
2021/01/04 12:05:27;;;;;;;;;;;;;;;5.99;70.46;100138.50;119031;1145;104550;-71
2021/01/04 12:07:54;;;;;;;;;;;;;;;6.02;71.56;100138.23;119013;1147;104532;-73
2021/01/04 12:10:22;;;;;;;;;;;;;;;6.08;71.36;100145.66;118968;1147;104639;-71
2021/01/04 12:12:49;;;;;;;;;;;;;;;6.16;71.21;100140.59;118999;1148;104502;-71
2021/01/04 12:15:17;;;;;;;;;;;;;;;6.16;70.33;100135.30;119001;1147;105324;-71
2021/01/04 12:17:44;;;;;;;;;;;;;;;6.12;70.59;100139.17;118964;1147;104679;-72
2021/01/04 12:20:12;;;;;;;;;;;;;;;6.05;70.71;100137.98;118921;1147;104495;-71
2021/01/04 12:22:39;;;;;;;;;;;;;;;6.00;70.46;100135.70;118716;1147;104546;-71
2021/01/04 12:25:07;;;;;;;;;;;;;;;5.97;71.52;100135.14;118858;1146;104503;-71
2021/01/04 12:27:34;;;;;;;;;;;;;;;5.94;70.68;100144.12;119001;1147;104579;-73
2021/01/04 12:30:01;;;;;;;;;;;;;;;5.88;71.53;100137.52;118947;1147;104489;-72
2021/01/04 12:32:30;;;;;;;;;;;;;;;5.87;71.73;100143.80;118842;1147;104553;-72
2021/01/04 12:34:58;;;;;;;;;;;;;;;5.92;71.58;100142.58;118697;1146;105049;-72
2021/01/04 12:37:25;;;;;;;;;;;;;;;5.93;71.58;100144.24;118960;1148;104475;-71
2021/01/04 12:39:52;;;;;;;;;;;;;;;5.93;70.99;100146.89;118866;1148;104530;-71
2021/01/04 12:42:19;;;;;;;;;;;;;;;5.93;70.55;100150.41;118860;1147;104464;-71
2021/01/04 12:44:48;;;;;;;;;;;;;;;5.96;71.04;100144.03;118757;1146;104472;-71
2021/01/04 12:47:15;;;;;;;;;;;;;;;5.97;70.67;100145.73;118683;1147;104459;-71
2021/01/04 12:49:44;;;;;;;;;;;;;;;5.96;70.66;100139.57;118703;1146;104556;-71
2021/01/04 12:52:11;;;;;;;;;;;;;;;5.98;70.81;100142.09;118850;1146;104499;-71
2021/01/04 12:54:39;;;;;;;;;;;;;;;5.95;71.54;100148.50;118857;1147;104453;-71